• Join FlightAware (Why Join?)
  • Login
  • US Flag 
06:37AM EDT


 

Airport Tracker/Info


-or-


 

Live Flight TrackerFlight Track Log ✈ N531QS ✈ 19-Jul-2013 ✈ KEGE - KAPA

Flight Track Log - Related Links

Times and Time Zones

All times are in EDT time to prevent confusion due to time zone crossing. See the N531QS flight status page for this flight to view local times or setup timezone preferences in your user account.

Time Position Orientation Groundspeed Altitude Reporting Facility
EDT Latitude Longitude Course Direction KTS MPH feet Rate Location/Type
06:18PM 39.6008 -107.0053 57° Northeast 191 220 10,900  Level Denver Center
06:19PM 39.6539 -107.0581 323° Northwest 295 339 12,700 1,980 Climbing Denver Center
06:20PM 39.7714 -107.0044 19° North 382 440 15,100 1,980 Climbing Denver Center
06:21PM 39.8700 -106.9333 29° Northeast 421 484 16,900 1,440 Climbing Denver Center
06:22PM 40.1410 -106.6102 66° East  Level FlightAware Approximate
06:22PM 39.8958 -106.7856 77° East 429 494 18,100  Level Denver Center
06:23PM 40.1800 -106.5068 57° Northeast  Level FlightAware Approximate
06:23PM 39.9133 -106.6328 81° East 427 491 21,600  Level Denver Center
06:24PM 39.9442 -106.4894 74° East 425 489 24,600 1,620 Climbing Denver Center
06:25PM 40.0047 -106.3394 62° Northeast 388 447 25,000 180 Climbing Denver Center
06:26PM 40.0536 -106.2172 62° Northeast 382 440 25,000  Level Denver Center
06:27PM 40.1225 -106.1172 48° Northeast 370 426 25,000 -360 Level Denver Center
06:28PM 40.2014 -106.0264 41° Northeast 375 432 24,300 -840 Descending Denver Center
06:29PM 40.2700 -105.9250 48° Northeast 372 428 23,300 -1,020 Descending Denver Center
06:30PM 40.3297 -105.8206 53° Northeast 362 417 22,300 -1,080 Descending Denver Center
06:31PM 40.3442 -105.6689 83° East 356 410 21,100 -1,080 Descending Denver Center
06:32PM 40.3514 -105.5361 86° East 359 413 20,100 -600 Descending Denver Center
06:33PM 40.3400 -105.4114 97° East 365 420 19,900 -720 Descending Denver Center
06:34PM 40.2522 -105.3422 149° Southeast 353 406 18,700 -1,260 Descending Denver Center
06:36PM 40.1608 -105.2964 159° South 352 405 17,400 -1,260 Descending Denver Center
06:37PM 40.0647 -105.2439 157° South 352 405 16,200 -1,260 Descending Denver Center
06:38PM 39.9775 -105.2036 161° South 337 388 14,800 -1,980 Descending Denver Center
06:39PM 39.8942 -105.1631 160° South 304 350 12,200 -2,340 Descending Denver Center
06:40PM 39.8222 -105.1267 159° South 281 323 10,000 -1,500 Descending Denver Center
06:41PM 39.7533 -105.0778 151° Southeast 264 304 9,100 -540 Descending Denver Center
06:42PM 39.6897 -105.0469 160° South 248 285 9,000  Descending Denver Center
06:43PM 39.6203 -105.0172 162° South 245 282 9,100  Climbing Denver Center
06:44PM 39.5544 -104.9889 162° South 249 287 9,100 -60 Level Denver Center
06:45PM 39.4889 -104.9608 162° South 249 287 9,000 -240 Descending Denver Center
06:46PM 39.4389 -104.9167 146° Southeast 223 257 8,700 -540 Descending Denver Center
06:47PM 39.4456 -104.8544 82° East 186 214 8,000 -720 Descending Denver Center
06:48PM 39.4850 -104.8472 North 141 162 7,300 -720 Descending Denver Center
06:49PM 39.5208 -104.8489 358° North 133 153 6,600 -720 Descending Denver Center
06:50PM 39.5581 -104.8503 358° North 134 154 5,900 -720 Descending Denver Center
06:52PM 39.5667 -104.8333 47° Northeast  Level FlightAware Approximate
06:59PM 39.5701 -104.8493 47° Northeast  Level Estimated
07:00PM 39.5701 -104.8493 47° Northeast  Level Estimated
07:01PM 39.5701 -104.8493 47° Northeast  Level Estimated
07:02PM 39.5701 -104.8493 47° Northeast  Level Estimated
07:03PM 39.5701 -104.8493 47° Northeast  Level Estimated